Colwyn Bay, United Kingdom
Current Conditions -  °F | °C
As of 2:50 PM on Monday 24 Nov 2014 (Local Time) from EGNR Reporting Station
Few Clouds Few Clouds  
Wind Chill: 50°   Ceiling: Unl
Heat Index: 50°   Visibility: 6mi
Dew Point: 41°   Wind: 5mph
Humidity: 71%   Direction: 230°SW
Pressure: 30.33"   Gusts: NA
Location:  53.29°N, 3.72°W
Report Text: EGNR 241450Z 23004KT 9999 FEW022 10/05 Q1027
Loading
Personal Weather Stations






























Interactive Weather Map New forecast layout! Learn more

10-Day Weather Forecast

Advertisements
Track Severe Weather on mobile